首页
METAR-TAF:

METAR-TAF

机场 :

Southwest Florida International Airport

麥爾茲堡, 佛罗里达州, 美国

纬度: 26-31-37N, 经度: 081-45-59W, 海拔: 9米

当前天气观测

该预报发布于47分钟前的12:53 UTC
风速8节,风向东北
温度 14°C
湿度 94%
气压 1024 hPa
能見度: 16.1公里
天空无云

METAR: KRSW 231253Z 04008KT 10SM CLR 14/13 A3023 RMK AO2 SLP234 T01390128

时间: 08:40 (13:40 UTC)

预报

该预报发布于2小时和1分钟前的11:39 UTC
预报有效从23日的 12点(UTC)到 24日的 12点(UTC)
风速6节,风向东转东北
能見度: 10公里
天空无云
从 23日的 1500点(UTC)
风速10节,风向
能見度: 10公里
少量云层高于4000英尺
散云层高于25000英尺
从 24日的 0100点(UTC)
风速4节,风向多变
能見度: 10公里
少量云层高于3000英尺
少量云层高于25000英尺

TAF: KRSW 231139Z 2312/2412 06006KT P6SM SKC FM231500 09010KT P6SM FEW040 SCT250 FM240100 VRB04KT P6SM FEW030 FEW250

超过4000个机场的气象观测和天气预报(METAR&TAF报告)。

可查询的气象台以黄色和红色小点在地图上表示。

将鼠标移到小点上方,可查看气象台名称。

然后点击查看天气观测和预报。

如需切换地图:点击带黑十字的绿色按钮放大地图;点击带横线的绿色按钮缩小地图;或者点击绿色箭头查看邻近地区的地图。


METAR-TAF: